createdAt,value
2018-11-29T00:00:42.515Z,0.00
2018-11-29T00:01:42.497Z,0.00
2018-11-29T00:02:42.488Z,0.00
2018-11-29T00:03:42.479Z,0.00
2018-11-29T00:04:42.466Z,0.00
2018-11-29T00:05:42.481Z,0.00
2018-11-29T00:06:42.445Z,0.00
2018-11-29T00:07:42.434Z,0.00
2018-11-29T00:08:42.424Z,0.00
2018-11-29T00:09:42.412Z,0.00
2018-11-29T00:10:42.406Z,0.00
2018-11-29T00:11:42.393Z,0.00
2018-11-29T00:12:42.380Z,0.00
2018-11-29T00:13:42.371Z,0.00
2018-11-29T00:14:42.359Z,0.00
2018-11-29T00:15:42.349Z,0.00
2018-11-29T00:16:42.337Z,0.00
2018-11-29T00:17:42.331Z,0.00
2018-11-29T00:18:42.318Z,0.00
2018-11-29T00:19:42.308Z,0.00
2018-11-29T00:20:42.296Z,0.00
2018-11-29T00:21:42.288Z,0.00
2018-11-29T00:22:42.275Z,0.00
2018-11-29T00:23:42.265Z,0.00
2018-11-29T00:24:42.260Z,0.00
2018-11-29T00:25:42.244Z,0.00
2018-11-29T00:26:42.233Z,0.00
2018-11-29T00:27:42.227Z,0.00
2018-11-29T00:28:42.211Z,0.00
2018-11-29T00:29:42.198Z,0.00
2018-11-29T00:30:42.190Z,0.00
2018-11-29T00:31:42.177Z,0.00
2018-11-29T00:32:42.169Z,0.00
2018-11-29T00:33:42.157Z,0.00
2018-11-29T00:34:42.147Z,0.00
2018-11-29T00:35:42.138Z,0.00
2018-11-29T00:36:42.127Z,0.00
2018-11-29T00:37:42.115Z,0.00
2018-11-29T00:38:42.107Z,0.00
2018-11-29T00:39:42.094Z,0.00
2018-11-29T00:40:42.083Z,0.00
2018-11-29T00:41:42.073Z,0.00
2018-11-29T00:42:42.065Z,0.00
2018-11-29T00:43:42.051Z,0.00
2018-11-29T00:44:42.042Z,0.00
2018-11-29T00:45:42.044Z,0.00
2018-11-29T00:46:42.021Z,0.00
2018-11-29T00:47:42.008Z,0.00
2018-11-29T00:48:42.001Z,0.00
2018-11-29T00:49:41.987Z,0.00
2018-11-29T00:50:41.976Z,0.00
2018-11-29T00:51:41.966Z,0.00
2018-11-29T00:52:41.956Z,0.00
2018-11-29T00:53:41.952Z,0.00
2018-11-29T00:54:41.935Z,0.00
2018-11-29T00:55:41.930Z,0.00
2018-11-29T00:56:41.914Z,0.00
2018-11-29T00:57:41.909Z,0.00
2018-11-29T00:58:41.892Z,0.00
2018-11-29T00:59:41.881Z,0.00
2018-11-29T01:00:41.871Z,0.00
2018-11-29T01:01:41.861Z,0.00
2018-11-29T01:02:41.849Z,0.00
2018-11-29T01:03:41.841Z,0.00
2018-11-29T01:04:41.826Z,0.00
2018-11-29T01:05:41.818Z,0.00
2018-11-29T01:06:41.806Z,0.00
2018-11-29T01:07:41.797Z,0.00
2018-11-29T01:08:41.789Z,0.00
2018-11-29T01:09:41.774Z,0.00
2018-11-29T01:10:41.766Z,0.00
2018-11-29T01:11:41.756Z,0.00
2018-11-29T01:12:41.743Z,0.00
2018-11-29T01:13:41.735Z,0.00
2018-11-29T01:14:41.721Z,0.00
2018-11-29T01:15:41.713Z,0.00
2018-11-29T01:16:41.703Z,0.00
2018-11-29T01:17:41.690Z,0.00
2018-11-29T01:18:41.682Z,0.00
2018-11-29T01:19:41.672Z,0.00
2018-11-29T01:20:41.663Z,0.00
2018-11-29T01:21:41.648Z,0.00
2018-11-29T01:22:41.640Z,0.00
2018-11-29T01:23:41.627Z,0.00
2018-11-29T01:24:41.617Z,0.00
2018-11-29T01:25:41.608Z,0.00
2018-11-29T01:26:41.595Z,0.00
2018-11-29T01:27:41.587Z,0.00
2018-11-29T01:28:41.573Z,0.00
2018-11-29T01:29:41.563Z,0.00
2018-11-29T01:30:41.555Z,0.00
2018-11-29T01:31:41.544Z,0.00
2018-11-29T01:32:41.533Z,0.00
2018-11-29T01:33:41.520Z,0.00
2018-11-29T01:34:41.509Z,0.00
2018-11-29T01:35:41.501Z,0.00
2018-11-29T01:36:41.488Z,0.00
2018-11-29T01:37:41.479Z,0.00
2018-11-29T01:38:41.468Z,0.00
2018-11-29T01:39:41.459Z,0.00
2018-11-29T01:40:41.448Z,0.00
2018-11-29T01:41:41.438Z,0.00
2018-11-29T01:42:41.469Z,0.00
2018-11-29T01:43:41.420Z,0.00
2018-11-29T01:44:41.405Z,0.00
2018-11-29T01:45:41.393Z,0.00
2018-11-29T01:46:41.384Z,0.00
2018-11-29T01:47:41.372Z,0.00
2018-11-29T01:48:41.362Z,0.00
2018-11-29T01:49:41.359Z,0.00
2018-11-29T01:50:41.341Z,0.00
2018-11-29T01:51:41.341Z,0.00
2018-11-29T01:52:41.320Z,0.00
2018-11-29T01:53:41.309Z,0.00
2018-11-29T01:54:41.300Z,0.00
2018-11-29T01:55:41.289Z,0.00
2018-11-29T01:56:41.279Z,0.00
2018-11-29T01:57:41.268Z,0.00
2018-11-29T01:58:41.261Z,0.00
2018-11-29T01:59:41.246Z,0.00
2018-11-29T02:00:41.236Z,0.00
2018-11-29T02:01:41.224Z,0.00
2018-11-29T02:02:41.214Z,0.00
2018-11-29T02:03:41.204Z,0.00
2018-11-29T02:04:41.194Z,0.00
2018-11-29T02:05:41.220Z,0.00
2018-11-29T02:06:41.173Z,0.00
2018-11-29T02:07:41.161Z,0.00
2018-11-29T02:08:41.152Z,0.00
2018-11-29T02:09:41.143Z,0.00
2018-11-29T02:10:41.132Z,0.00
2018-11-29T02:11:41.126Z,0.00
2018-11-29T02:12:41.112Z,0.00
2018-11-29T02:13:41.099Z,0.00
2018-11-29T02:14:41.089Z,0.00
2018-11-29T02:15:41.077Z,0.00
2018-11-29T02:16:41.067Z,0.00
2018-11-29T02:17:41.057Z,0.00
2018-11-29T02:18:41.046Z,0.00
2018-11-29T02:19:41.040Z,0.00
2018-11-29T02:20:41.028Z,0.00
2018-11-29T02:21:41.015Z,0.00
2018-11-29T02:22:41.003Z,0.00
2018-11-29T02:23:40.995Z,0.00
2018-11-29T02:24:40.982Z,0.00
2018-11-29T02:25:40.975Z,0.00
2018-11-29T02:26:40.962Z,0.00
2018-11-29T02:27:40.950Z,0.00
2018-11-29T02:28:40.941Z,0.00
2018-11-29T02:29:40.928Z,0.00
2018-11-29T02:30:40.920Z,0.00
2018-11-29T02:31:40.910Z,0.00
2018-11-29T02:32:40.898Z,0.00
2018-11-29T02:33:40.891Z,0.00
2018-11-29T02:34:40.878Z,0.00
2018-11-29T02:35:40.865Z,0.00
2018-11-29T02:36:40.867Z,0.00
2018-11-29T02:37:40.845Z,0.00
2018-11-29T02:38:40.836Z,0.00
2018-11-29T02:39:40.825Z,0.00
2018-11-29T02:40:40.815Z,0.00
2018-11-29T02:41:40.803Z,0.00
2018-11-29T02:42:40.803Z,0.00
2018-11-29T02:43:40.801Z,0.00
2018-11-29T02:44:40.773Z,0.00
2018-11-29T02:45:40.761Z,0.00
2018-11-29T02:46:40.749Z,0.00
2018-11-29T02:47:40.740Z,0.00
2018-11-29T02:48:40.733Z,0.00
2018-11-29T02:49:40.720Z,0.00
2018-11-29T02:50:40.716Z,0.00
2018-11-29T02:51:40.698Z,0.00
2018-11-29T02:52:40.710Z,0.00
2018-11-29T02:53:40.676Z,0.00
2018-11-29T02:54:40.706Z,0.00
2018-11-29T02:55:40.656Z,0.00
2018-11-29T02:56:40.646Z,0.00
2018-11-29T02:57:40.636Z,0.00
2018-11-29T02:58:40.622Z,0.00
2018-11-29T02:59:40.613Z,0.00
2018-11-29T03:00:40.603Z,0.00
2018-11-29T03:01:40.594Z,0.00
2018-11-29T03:02:40.582Z,0.00
2018-11-29T03:03:40.579Z,0.00
2018-11-29T03:04:40.560Z,0.00
2018-11-29T03:05:40.550Z,0.00
2018-11-29T03:06:40.539Z,0.00
2018-11-29T03:07:40.592Z,0.00
2018-11-29T03:08:40.519Z,0.00
2018-11-29T03:09:40.507Z,0.00
2018-11-29T03:10:40.496Z,0.00
2018-11-29T03:11:40.488Z,0.00
2018-11-29T03:12:40.475Z,0.00
2018-11-29T03:13:40.464Z,0.00
2018-11-29T03:14:40.456Z,0.00
2018-11-29T03:15:40.446Z,0.00
2018-11-29T03:16:40.433Z,0.00
2018-11-29T03:17:40.423Z,0.00
2018-11-29T03:18:40.414Z,0.00
2018-11-29T03:19:40.404Z,0.00
2018-11-29T03:20:40.390Z,0.00
2018-11-29T03:21:40.384Z,0.00
2018-11-29T03:22:40.369Z,0.00
2018-11-29T03:23:40.360Z,0.00
2018-11-29T03:24:40.348Z,0.00
2018-11-29T03:25:40.339Z,0.00
2018-11-29T03:26:40.328Z,0.00
2018-11-29T03:27:40.317Z,0.00
2018-11-29T03:28:40.308Z,0.00
2018-11-29T03:29:40.298Z,0.00
2018-11-29T03:30:40.292Z,0.00
2018-11-29T03:31:40.276Z,0.00
2018-11-29T03:32:40.270Z,0.00
2018-11-29T03:33:40.253Z,0.00
2018-11-29T03:34:40.242Z,0.00
2018-11-29T03:35:44.408Z,0.00
2018-11-29T03:36:40.226Z,0.00
2018-11-29T03:37:40.209Z,0.00
2018-11-29T03:38:40.205Z,0.00
2018-11-29T03:39:40.189Z,0.00
2018-11-29T03:40:40.178Z,0.00
2018-11-29T03:41:40.171Z,0.00
2018-11-29T03:42:40.157Z,0.00
2018-11-29T03:43:40.148Z,0.00
2018-11-29T03:44:40.137Z,0.00
2018-11-29T03:45:40.125Z,0.00
2018-11-29T03:46:40.115Z,0.00
2018-11-29T03:47:40.104Z,0.00
2018-11-29T03:48:40.093Z,0.00
2018-11-29T03:49:40.084Z,0.00
2018-11-29T03:50:40.073Z,0.00
2018-11-29T03:51:40.062Z,0.00
2018-11-29T03:52:40.051Z,0.00
2018-11-29T03:53:40.040Z,0.00
2018-11-29T03:54:40.031Z,0.00
2018-11-29T03:55:40.019Z,0.00
2018-11-29T03:56:40.008Z,0.00
2018-11-29T03:57:40.002Z,0.00
2018-11-29T03:58:39.991Z,0.00
2018-11-29T03:59:39.975Z,0.00
2018-11-29T04:00:39.967Z,0.00
2018-11-29T04:01:39.958Z,0.00
2018-11-29T04:02:39.945Z,0.00
2018-11-29T04:03:39.935Z,0.00
2018-11-29T04:04:39.922Z,0.00
2018-11-29T04:05:39.921Z,0.00
2018-11-29T04:06:39.901Z,0.00
2018-11-29T04:07:39.890Z,0.00
2018-11-29T04:08:39.883Z,0.00
2018-11-29T04:09:39.872Z,0.00
2018-11-29T04:10:39.863Z,0.00
2018-11-29T04:11:39.855Z,0.00
2018-11-29T04:12:39.838Z,0.00
2018-11-29T04:13:39.829Z,0.00
2018-11-29T04:14:39.818Z,0.00
2018-11-29T04:15:39.806Z,0.00
2018-11-29T04:16:39.799Z,0.00
2018-11-29T04:17:40.987Z,0.00
2018-11-29T04:18:39.774Z,0.00
2018-11-29T04:19:39.764Z,0.00
2018-11-29T04:20:39.754Z,0.00
2018-11-29T04:21:39.741Z,0.00
2018-11-29T04:22:39.732Z,0.00
2018-11-29T04:23:39.721Z,0.00
2018-11-29T04:24:39.713Z,0.00
2018-11-29T04:25:39.697Z,0.00
2018-11-29T04:26:39.690Z,0.00
2018-11-29T04:27:39.680Z,0.00
2018-11-29T04:28:39.672Z,0.00
2018-11-29T04:29:39.665Z,0.00
2018-11-29T04:30:39.648Z,0.00
2018-11-29T04:31:39.638Z,0.00
2018-11-29T04:32:39.625Z,0.00
2018-11-29T04:33:39.613Z,0.00
2018-11-29T04:34:39.603Z,0.00
2018-11-29T04:35:39.600Z,0.00
2018-11-29T04:36:39.583Z,0.00
2018-11-29T04:37:39.575Z,0.00
2018-11-29T04:38:39.561Z,0.00
2018-11-29T04:39:39.551Z,0.00
2018-11-29T04:40:39.541Z,0.00
2018-11-29T04:41:39.528Z,0.00
2018-11-29T04:42:39.518Z,0.00
2018-11-29T04:43:39.507Z,0.00
2018-11-29T04:44:39.497Z,0.00
2018-11-29T04:45:39.485Z,0.00
2018-11-29T04:46:39.477Z,0.00
2018-11-29T04:47:39.471Z,0.00
2018-11-29T04:48:39.454Z,0.00
2018-11-29T04:49:39.443Z,0.00
2018-11-29T04:50:39.435Z,0.00
2018-11-29T04:51:39.460Z,0.00
2018-11-29T04:52:39.416Z,0.00
2018-11-29T04:53:39.404Z,0.00
2018-11-29T04:54:39.397Z,0.00
2018-11-29T04:55:39.381Z,0.00
2018-11-29T04:56:39.372Z,0.00
2018-11-29T04:57:39.362Z,0.00
2018-11-29T04:58:39.348Z,0.00
2018-11-29T04:59:39.338Z,0.00
2018-11-29T05:00:39.326Z,0.00
2018-11-29T05:01:39.316Z,0.00
2018-11-29T05:02:39.305Z,0.00
2018-11-29T05:03:39.295Z,0.00
2018-11-29T05:04:39.291Z,0.00
2018-11-29T05:05:39.276Z,0.00
2018-11-29T05:06:39.264Z,0.00
2018-11-29T05:07:39.252Z,0.00
2018-11-29T05:08:39.253Z,0.00
2018-11-29T05:09:39.232Z,0.00
2018-11-29T05:10:39.222Z,0.00
2018-11-29T05:11:39.226Z,0.00
2018-11-29T05:12:39.205Z,0.00
2018-11-29T05:13:39.188Z,0.00
2018-11-29T05:14:39.178Z,0.00
2018-11-29T05:15:39.168Z,0.00
2018-11-29T05:16:39.160Z,0.00
2018-11-29T05:17:39.150Z,0.00
2018-11-29T05:18:39.134Z,0.00
2018-11-29T05:19:39.124Z,0.00
2018-11-29T05:20:39.117Z,0.00
2018-11-29T05:21:39.104Z,0.00
2018-11-29T05:22:39.094Z,0.00
2018-11-29T05:23:39.081Z,0.00
2018-11-29T05:24:39.073Z,0.00
2018-11-29T05:25:39.063Z,0.00
2018-11-29T05:26:39.050Z,0.00
2018-11-29T05:27:39.041Z,0.00
2018-11-29T05:28:39.028Z,0.00
2018-11-29T05:29:39.019Z,0.00
2018-11-29T05:30:39.008Z,0.00
2018-11-29T05:31:38.998Z,0.00
2018-11-29T05:32:38.986Z,0.00
2018-11-29T05:33:38.978Z,0.00
2018-11-29T05:34:38.969Z,0.00
2018-11-29T05:35:38.960Z,0.00
2018-11-29T05:36:38.948Z,0.00
2018-11-29T05:37:38.936Z,0.00
2018-11-29T05:38:38.923Z,0.00
2018-11-29T05:39:38.916Z,0.00
2018-11-29T05:40:38.903Z,0.00
2018-11-29T05:41:38.892Z,0.00
2018-11-29T05:42:38.879Z,0.00
2018-11-29T05:43:38.873Z,0.00
2018-11-29T05:44:38.867Z,0.00
2018-11-29T05:45:38.860Z,0.00
2018-11-29T05:46:38.847Z,0.00
2018-11-29T05:47:38.837Z,0.00
2018-11-29T05:48:38.822Z,0.00
2018-11-29T05:49:38.814Z,0.00
2018-11-29T05:50:38.800Z,0.00
2018-11-29T05:51:38.786Z,0.00
2018-11-29T05:52:38.776Z,0.00
2018-11-29T05:53:38.769Z,0.00
2018-11-29T05:54:38.755Z,0.00
2018-11-29T05:55:38.745Z,0.00
2018-11-29T05:56:38.735Z,0.00
2018-11-29T05:57:38.722Z,0.00
2018-11-29T05:58:38.713Z,0.00
2018-11-29T05:59:38.699Z,0.00
2018-11-29T06:00:38.695Z,0.00
2018-11-29T06:01:38.679Z,0.00
2018-11-29T06:02:38.670Z,0.00
2018-11-29T06:03:38.658Z,0.00
2018-11-29T06:04:38.646Z,0.00
2018-11-29T06:05:39.490Z,0.00
2018-11-29T06:06:38.626Z,0.00
2018-11-29T06:07:38.616Z,0.00
2018-11-29T06:08:38.607Z,0.00
2018-11-29T06:09:38.596Z,0.00
2018-11-29T06:10:38.591Z,0.00
2018-11-29T06:11:38.574Z,0.00
2018-11-29T06:12:38.562Z,0.00
2018-11-29T06:13:38.553Z,0.00
2018-11-29T06:14:38.542Z,0.00
2018-11-29T06:15:38.537Z,0.00
2018-11-29T06:16:38.520Z,0.00
2018-11-29T06:17:38.509Z,0.00
2018-11-29T06:18:38.500Z,0.00
2018-11-29T06:19:38.487Z,0.00
2018-11-29T06:20:38.481Z,0.00
2018-11-29T06:21:38.467Z,0.00
2018-11-29T06:22:38.466Z,0.00
2018-11-29T06:23:38.447Z,0.00
2018-11-29T06:24:38.437Z,0.00
2018-11-29T06:25:38.427Z,0.00
2018-11-29T06:26:38.413Z,0.00
2018-11-29T06:27:38.404Z,0.00
2018-11-29T06:28:38.394Z,0.00
2018-11-29T06:29:38.385Z,0.00
2018-11-29T06:30:38.373Z,0.00
2018-11-29T06:31:38.362Z,0.00
2018-11-29T06:32:38.350Z,5.62
2018-11-29T06:33:38.340Z,5.62
2018-11-29T06:34:38.366Z,5.62
2018-11-29T06:35:38.320Z,5.62
2018-11-29T06:36:38.306Z,5.62
2018-11-29T06:37:38.300Z,11.25
2018-11-29T06:38:38.286Z,11.25
2018-11-29T06:39:38.276Z,11.25
2018-11-29T06:40:38.272Z,11.25
2018-11-29T06:41:38.259Z,16.88
2018-11-29T06:42:38.245Z,16.88
2018-11-29T06:43:38.234Z,16.88
2018-11-29T06:44:38.222Z,16.88
2018-11-29T06:45:38.213Z,16.88
2018-11-29T06:46:38.205Z,16.88
2018-11-29T06:47:38.191Z,16.88
2018-11-29T06:48:38.178Z,16.88
2018-11-29T06:49:38.170Z,16.88
2018-11-29T06:50:38.159Z,16.88
2018-11-29T06:51:38.364Z,11.25
2018-11-29T06:52:38.136Z,11.25
2018-11-29T06:53:38.127Z,16.88
2018-11-29T06:54:38.119Z,16.88
2018-11-29T06:55:38.114Z,16.88
2018-11-29T06:56:38.096Z,16.88
2018-11-29T06:57:38.084Z,16.88
2018-11-29T06:58:38.074Z,16.88
2018-11-29T06:59:38.064Z,16.88
2018-11-29T07:00:38.057Z,22.50
2018-11-29T07:01:38.041Z,22.50
2018-11-29T07:02:38.030Z,22.50
2018-11-29T07:03:38.021Z,22.50
2018-11-29T07:04:38.008Z,28.12
2018-11-29T07:05:38.001Z,28.12
2018-11-29T07:06:37.988Z,28.12
2018-11-29T07:07:37.977Z,28.12
2018-11-29T07:08:37.965Z,33.75
2018-11-29T07:09:38.025Z,33.75
2018-11-29T07:10:37.945Z,33.75
2018-11-29T07:11:37.936Z,39.38
2018-11-29T07:12:37.924Z,39.38
2018-11-29T07:13:38.004Z,39.38
2018-11-29T07:14:37.909Z,45.00
2018-11-29T07:15:37.892Z,45.00
2018-11-29T07:16:37.880Z,45.00
2018-11-29T07:17:37.871Z,50.62
2018-11-29T07:18:37.861Z,50.62
2018-11-29T07:19:38.031Z,56.25
2018-11-29T07:20:37.840Z,56.25
2018-11-29T07:21:37.828Z,61.88
2018-11-29T07:22:37.830Z,61.88
2018-11-29T07:23:37.806Z,67.50
2018-11-29T07:24:37.801Z,67.50
2018-11-29T07:25:37.786Z,73.12
2018-11-29T07:26:37.774Z,78.75
2018-11-29T07:27:37.763Z,78.75
2018-11-29T07:28:37.758Z,84.38
2018-11-29T07:29:37.743Z,90.00
2018-11-29T07:30:37.731Z,95.62
2018-11-29T07:31:37.722Z,101.25
2018-11-29T07:32:37.713Z,112.50
2018-11-29T07:33:37.703Z,118.12
2018-11-29T07:34:37.689Z,129.38
2018-11-29T07:35:37.679Z,135.00
2018-11-29T07:36:37.669Z,140.62
2018-11-29T07:37:37.658Z,146.25
2018-11-29T07:38:37.645Z,157.50
2018-11-29T07:39:37.637Z,163.12
2018-11-29T07:40:37.626Z,168.75
2018-11-29T07:41:37.615Z,168.75
2018-11-29T07:42:37.603Z,168.75
2018-11-29T07:43:37.603Z,174.38
2018-11-29T07:44:37.584Z,185.62
2018-11-29T07:45:37.570Z,196.88
2018-11-29T07:46:37.559Z,208.12
2018-11-29T07:47:37.550Z,191.25
2018-11-29T07:48:37.538Z,174.38
2018-11-29T07:49:37.530Z,185.62
2018-11-29T07:50:37.516Z,202.50
2018-11-29T07:51:37.508Z,241.88
2018-11-29T07:52:37.496Z,275.62
2018-11-29T07:53:37.487Z,275.62
2018-11-29T07:54:37.475Z,343.12
2018-11-29T07:55:37.467Z,388.12
2018-11-29T07:56:37.453Z,337.50
2018-11-29T07:57:37.448Z,326.25
2018-11-29T07:58:37.432Z,438.75
2018-11-29T07:59:37.423Z,495.00
2018-11-29T08:00:37.412Z,478.12
2018-11-29T08:01:37.405Z,450.00
2018-11-29T08:02:37.390Z,444.38
2018-11-29T08:03:37.382Z,523.12
2018-11-29T08:04:37.367Z,562.50
2018-11-29T08:05:37.356Z,472.50
2018-11-29T08:06:37.347Z,444.38
2018-11-29T08:07:37.343Z,376.88
2018-11-29T08:08:37.324Z,365.62
2018-11-29T08:09:37.314Z,343.12
2018-11-29T08:10:37.309Z,315.00
2018-11-29T08:11:37.293Z,303.75
2018-11-29T08:12:37.287Z,309.38
2018-11-29T08:13:37.282Z,315.00
2018-11-29T08:14:37.262Z,320.62
2018-11-29T08:15:37.251Z,315.00
2018-11-29T08:16:37.240Z,286.88
2018-11-29T08:17:37.230Z,258.75
2018-11-29T08:18:37.219Z,253.12
2018-11-29T08:19:37.208Z,247.50
2018-11-29T08:20:37.200Z,241.88
2018-11-29T08:21:37.190Z,236.25
2018-11-29T08:22:37.177Z,236.25
2018-11-29T08:23:37.172Z,236.25
2018-11-29T08:24:37.159Z,236.25
2018-11-29T08:25:37.143Z,253.12
2018-11-29T08:26:37.133Z,264.38
2018-11-29T08:27:37.122Z,264.38
2018-11-29T08:28:37.114Z,275.62
2018-11-29T08:29:37.104Z,258.75
2018-11-29T08:30:37.093Z,247.50
2018-11-29T08:31:37.081Z,253.12
2018-11-29T08:32:37.069Z,264.38
2018-11-29T08:33:37.060Z,270.00
2018-11-29T08:34:37.048Z,281.25
2018-11-29T08:35:37.038Z,298.12
2018-11-29T08:36:37.030Z,315.00
2018-11-29T08:37:37.017Z,348.75
2018-11-29T08:38:37.005Z,354.38
2018-11-29T08:39:36.997Z,348.75
2018-11-29T08:40:36.986Z,360.00
2018-11-29T08:41:36.979Z,371.25
2018-11-29T08:42:36.962Z,393.75
2018-11-29T08:43:36.954Z,410.62
2018-11-29T08:44:36.942Z,427.50
2018-11-29T08:45:36.931Z,438.75
2018-11-29T08:46:36.921Z,461.25
2018-11-29T08:47:36.909Z,466.88
2018-11-29T08:48:36.901Z,495.00
2018-11-29T08:49:36.889Z,585.00
2018-11-29T08:50:36.880Z,708.75
2018-11-29T08:51:36.873Z,1029.38
2018-11-29T08:52:36.858Z,1333.12
2018-11-29T08:53:36.848Z,1400.62
2018-11-29T08:54:36.835Z,1265.62
2018-11-29T08:55:36.824Z,1035.00
2018-11-29T08:56:36.815Z,1175.62
2018-11-29T08:57:36.805Z,1018.12
2018-11-29T08:58:36.793Z,1243.12
2018-11-29T08:59:36.784Z,1119.38
2018-11-29T09:00:36.776Z,787.50
2018-11-29T09:01:36.761Z,956.25
2018-11-29T09:02:36.749Z,995.62
2018-11-29T09:03:36.741Z,697.50
2018-11-29T09:04:36.730Z,731.25
2018-11-29T09:05:36.721Z,646.88
2018-11-29T09:06:36.711Z,618.75
2018-11-29T09:07:36.696Z,624.38
2018-11-29T09:08:36.686Z,725.62
2018-11-29T09:09:36.675Z,826.88
2018-11-29T09:10:36.665Z,939.38
2018-11-29T09:11:36.658Z,1029.38
2018-11-29T09:12:36.643Z,911.25
2018-11-29T09:13:36.632Z,832.50
2018-11-29T09:14:36.625Z,658.12
2018-11-29T09:15:36.611Z,759.38
2018-11-29T09:16:36.603Z,776.25
2018-11-29T09:17:36.589Z,596.25
2018-11-29T09:18:36.579Z,579.38
2018-11-29T09:19:37.484Z,618.75
2018-11-29T09:20:36.557Z,613.12
2018-11-29T09:21:36.547Z,585.00
2018-11-29T09:22:36.535Z,585.00
2018-11-29T09:23:36.526Z,556.88
2018-11-29T09:24:36.517Z,551.25
2018-11-29T09:25:36.504Z,545.62
2018-11-29T09:26:36.495Z,551.25
2018-11-29T09:27:36.484Z,551.25
2018-11-29T09:28:36.470Z,562.50
2018-11-29T09:29:36.463Z,579.38
2018-11-29T09:30:36.450Z,607.50
2018-11-29T09:31:36.441Z,624.38
2018-11-29T09:32:36.430Z,630.00
2018-11-29T09:33:36.417Z,601.88
2018-11-29T09:34:36.407Z,579.38
2018-11-29T09:35:36.397Z,579.38
2018-11-29T09:36:36.385Z,579.38
2018-11-29T09:37:36.380Z,573.75
2018-11-29T09:38:36.364Z,568.12
2018-11-29T09:39:36.353Z,556.88
2018-11-29T09:40:36.342Z,545.62
2018-11-29T09:41:36.336Z,534.38
2018-11-29T09:42:36.322Z,517.50
2018-11-29T09:43:36.314Z,506.25
2018-11-29T09:44:36.300Z,489.38
2018-11-29T09:45:36.289Z,478.12
2018-11-29T09:46:36.278Z,472.50
2018-11-29T09:47:36.271Z,461.25
2018-11-29T09:48:36.256Z,455.62
2018-11-29T09:49:36.249Z,450.00
2018-11-29T09:50:36.236Z,444.38
2018-11-29T09:51:36.226Z,438.75
2018-11-29T09:52:36.216Z,438.75
2018-11-29T09:53:36.209Z,438.75
2018-11-29T09:54:36.192Z,438.75
2018-11-29T09:55:36.183Z,438.75
2018-11-29T09:56:36.170Z,450.00
2018-11-29T09:57:36.162Z,455.62
2018-11-29T09:58:36.150Z,461.25
2018-11-29T09:59:36.139Z,466.88
2018-11-29T10:00:36.129Z,483.75
2018-11-29T10:01:36.117Z,483.75
2018-11-29T10:02:36.112Z,483.75
2018-11-29T10:03:36.097Z,495.00
2018-11-29T10:04:36.085Z,506.25
2018-11-29T10:05:36.075Z,523.12
2018-11-29T10:06:36.066Z,534.38
2018-11-29T10:07:36.055Z,551.25
2018-11-29T10:08:36.045Z,568.12
2018-11-29T10:09:36.032Z,590.62
2018-11-29T10:10:36.026Z,624.38
2018-11-29T10:11:36.015Z,658.12
2018-11-29T10:12:36.000Z,748.12
2018-11-29T10:13:35.993Z,770.62
2018-11-29T10:14:35.982Z,770.62
2018-11-29T10:15:35.970Z,635.62
2018-11-29T10:16:35.958Z,641.25
2018-11-29T10:17:35.950Z,652.50
2018-11-29T10:18:35.943Z,675.00
2018-11-29T10:19:35.928Z,714.38
2018-11-29T10:20:35.916Z,855.00
2018-11-29T10:21:35.904Z,787.50
2018-11-29T10:22:35.895Z,832.50
2018-11-29T10:23:35.885Z,871.88
2018-11-29T10:24:35.874Z,1119.38
2018-11-29T10:25:36.599Z,1586.25
2018-11-29T10:26:35.855Z,1800.00
2018-11-29T10:27:35.841Z,1946.25
2018-11-29T10:28:35.829Z,1681.88
2018-11-29T10:29:35.822Z,1530.00
2018-11-29T10:30:35.812Z,1760.62
2018-11-29T10:31:35.796Z,2165.62
2018-11-29T10:32:35.788Z,1220.62
2018-11-29T10:33:35.777Z,1327.50
2018-11-29T10:34:35.764Z,1828.12
2018-11-29T10:35:35.753Z,2300.62
2018-11-29T10:36:35.742Z,2199.38
2018-11-29T10:37:35.734Z,2356.88
2018-11-29T10:38:35.721Z,2407.50
2018-11-29T10:39:35.711Z,1659.38
2018-11-29T10:40:35.700Z,2300.62
2018-11-29T10:41:35.692Z,2205.00
2018-11-29T10:42:35.679Z,2255.62
2018-11-29T10:43:35.669Z,2255.62
2018-11-29T10:44:35.656Z,2221.88
2018-11-29T10:45:35.647Z,2199.38
2018-11-29T10:46:35.635Z,2171.25
2018-11-29T10:47:35.623Z,2092.50
2018-11-29T10:48:35.614Z,2081.25
2018-11-29T10:49:35.606Z,2013.75
2018-11-29T10:50:35.592Z,2008.12
2018-11-29T10:51:35.581Z,2041.88
2018-11-29T10:52:35.569Z,2070.00
2018-11-29T10:53:37.133Z,2120.62
2018-11-29T10:54:35.549Z,2109.38
2018-11-29T10:55:35.541Z,2092.50
2018-11-29T10:56:35.528Z,2081.25
2018-11-29T10:57:35.516Z,2002.50
2018-11-29T10:58:35.504Z,2058.75
2018-11-29T10:59:35.493Z,2036.25
2018-11-29T11:00:35.483Z,2025.00
2018-11-29T11:01:35.472Z,1906.88
2018-11-29T11:02:35.462Z,1749.38
2018-11-29T11:03:35.451Z,1653.75
2018-11-29T11:04:35.440Z,1715.62
2018-11-29T11:05:35.432Z,1698.75
2018-11-29T11:06:35.419Z,1620.00
2018-11-29T11:07:35.409Z,1434.38
2018-11-29T11:08:35.397Z,1344.38
2018-11-29T11:09:35.388Z,1411.88
2018-11-29T11:10:35.375Z,1260.00
2018-11-29T11:11:35.364Z,1158.75
2018-11-29T11:12:35.355Z,1068.75
2018-11-29T11:13:35.342Z,1248.75
2018-11-29T11:14:36.264Z,1226.25
2018-11-29T11:15:35.322Z,1164.38
2018-11-29T11:16:35.314Z,1057.50
2018-11-29T11:17:35.298Z,950.62
2018-11-29T11:18:35.290Z,1018.12
2018-11-29T11:19:35.280Z,1040.62
2018-11-29T11:20:35.269Z,1029.38
2018-11-29T11:21:35.259Z,967.50
2018-11-29T11:22:35.245Z,1029.38
2018-11-29T11:23:35.237Z,1035.00
2018-11-29T11:24:35.225Z,967.50
2018-11-29T11:25:35.217Z,1018.12
2018-11-29T11:26:35.203Z,1029.38
2018-11-29T11:27:35.191Z,1125.00
2018-11-29T11:28:35.182Z,1260.00
2018-11-29T11:29:35.174Z,1338.75
2018-11-29T11:30:35.158Z,1395.00
2018-11-29T11:31:35.152Z,1473.75
2018-11-29T11:32:35.138Z,1496.25
2018-11-29T11:33:35.132Z,1530.00
2018-11-29T11:34:35.116Z,1535.62
2018-11-29T11:35:35.108Z,1558.12
2018-11-29T11:36:35.102Z,1546.88
2018-11-29T11:37:35.082Z,1530.00
2018-11-29T11:38:35.072Z,1468.12
2018-11-29T11:39:35.061Z,1434.38
2018-11-29T11:40:35.052Z,1456.88
2018-11-29T11:41:35.042Z,1395.00
2018-11-29T11:42:35.033Z,1389.38
2018-11-29T11:43:35.019Z,1327.50
2018-11-29T11:44:35.009Z,1299.38
2018-11-29T11:45:34.997Z,1327.50
2018-11-29T11:46:34.986Z,1321.88
2018-11-29T11:47:34.975Z,1237.50
2018-11-29T11:48:34.963Z,1192.50
2018-11-29T11:49:34.954Z,1113.75
2018-11-29T11:50:34.945Z,1057.50
2018-11-29T11:51:34.934Z,1001.25
2018-11-29T11:52:34.921Z,1046.25
2018-11-29T11:53:34.910Z,1141.88
2018-11-29T11:54:34.900Z,1186.88
2018-11-29T11:55:34.889Z,1186.88
2018-11-29T11:56:34.876Z,1125.00
2018-11-29T11:57:34.867Z,1080.00
2018-11-29T11:58:34.856Z,1113.75
2018-11-29T11:59:34.843Z,1085.62
2018-11-29T12:00:34.832Z,1051.88
2018-11-29T12:01:34.824Z,1018.12
2018-11-29T12:02:34.816Z,995.62
2018-11-29T12:03:34.800Z,950.62
2018-11-29T12:04:34.790Z,894.38
2018-11-29T12:05:34.782Z,821.25
2018-11-29T12:06:34.770Z,776.25
2018-11-29T12:07:34.757Z,748.12
2018-11-29T12:08:34.746Z,804.38
2018-11-29T12:09:34.737Z,855.00
2018-11-29T12:10:34.724Z,928.12
2018-11-29T12:11:34.714Z,956.25
2018-11-29T12:12:34.704Z,1001.25
2018-11-29T12:13:34.694Z,967.50
2018-11-29T12:14:34.682Z,894.38
2018-11-29T12:15:34.672Z,894.38
2018-11-29T12:16:34.661Z,928.12
2018-11-29T12:17:34.649Z,945.00
2018-11-29T12:18:34.639Z,916.88
2018-11-29T12:19:34.630Z,1001.25
2018-11-29T12:20:34.617Z,928.12
2018-11-29T12:21:34.607Z,849.38
2018-11-29T12:22:34.595Z,855.00
2018-11-29T12:23:34.584Z,860.62
2018-11-29T12:24:34.575Z,866.25
2018-11-29T12:25:34.563Z,866.25
2018-11-29T12:26:34.554Z,877.50
2018-11-29T12:27:34.549Z,871.88
2018-11-29T12:28:34.533Z,866.25
2018-11-29T12:29:34.522Z,826.88
2018-11-29T12:30:34.509Z,883.12
2018-11-29T12:31:34.499Z,826.88
2018-11-29T12:32:34.489Z,691.88
2018-11-29T12:33:34.478Z,562.50
2018-11-29T12:34:34.467Z,495.00
2018-11-29T12:35:34.460Z,466.88
2018-11-29T12:36:34.447Z,450.00
2018-11-29T12:37:34.436Z,438.75
2018-11-29T12:38:34.424Z,427.50
2018-11-29T12:39:34.413Z,427.50
2018-11-29T12:40:34.403Z,421.88
2018-11-29T12:41:34.396Z,416.25
2018-11-29T12:42:34.380Z,410.62
2018-11-29T12:43:34.370Z,405.00
2018-11-29T12:44:34.360Z,399.38
2018-11-29T12:45:34.350Z,399.38
2018-11-29T12:46:34.337Z,388.12
2018-11-29T12:47:34.328Z,388.12
2018-11-29T12:48:34.315Z,382.50
2018-11-29T12:49:34.306Z,376.88
2018-11-29T12:50:34.297Z,365.62
2018-11-29T12:51:34.285Z,360.00